createdAt,value
2023-04-29T00:00:11.333Z,5.40
2023-04-29T00:02:51.380Z,5.40
2023-04-29T00:05:31.684Z,5.40
2023-04-29T00:08:19.292Z,5.40
2023-04-29T00:11:06.538Z,5.40
2023-04-29T00:13:47.245Z,5.30
2023-04-29T00:16:27.455Z,5.30
2023-04-29T00:19:14.256Z,5.30
2023-04-29T00:22:01.456Z,5.20
2023-04-29T00:24:41.238Z,5.20
2023-04-29T00:27:28.428Z,5.20
2023-04-29T00:30:08.258Z,5.20
2023-04-29T00:32:55.518Z,5.10
2023-04-29T00:35:36.263Z,5.10
2023-04-29T00:38:23.899Z,5.10
2023-04-29T00:41:04.240Z,5.10
2023-04-29T00:43:59.277Z,5.10
2023-04-29T00:46:46.418Z,5.10
2023-04-29T00:49:27.343Z,5.00
2023-04-29T00:52:14.430Z,5.00
2023-04-29T00:54:55.281Z,5.00
2023-04-29T00:57:42.802Z,5.00
2023-04-29T01:00:23.301Z,4.90
2023-04-29T01:03:11.546Z,4.90
2023-04-29T01:05:57.296Z,4.90
2023-04-29T01:08:54.431Z,4.80
2023-04-29T01:11:38.317Z,4.90
2023-04-29T01:14:25.472Z,4.80
2023-04-29T01:17:13.399Z,4.90
2023-04-29T01:20:02.418Z,4.80
2023-04-29T01:22:44.308Z,4.80
2023-04-29T01:25:31.681Z,4.70
2023-04-29T01:28:36.312Z,4.60
2023-04-29T01:31:41.454Z,4.60
2023-04-29T01:34:40.643Z,4.60
2023-04-29T01:37:42.390Z,4.60
2023-04-29T01:40:29.101Z,4.60
2023-04-29T01:43:25.325Z,4.50
2023-04-29T01:46:13.730Z,4.30
2023-04-29T01:49:01.334Z,4.30
2023-04-29T01:51:48.529Z,4.30
2023-04-29T01:54:32.378Z,4.20
2023-04-29T01:57:19.530Z,4.20
2023-04-29T02:00:27.387Z,4.10
2023-04-29T02:03:16.704Z,4.20
2023-04-29T02:06:01.724Z,4.10
2023-04-29T02:08:51.332Z,4.10
2023-04-29T02:11:31.534Z,4.10
2023-04-29T02:14:19.362Z,4.00
2023-04-29T02:16:59.578Z,3.90
2023-04-29T02:19:46.373Z,3.90
2023-04-29T02:22:33.473Z,3.80
2023-04-29T02:25:20.371Z,3.80
2023-04-29T02:28:00.565Z,3.80
2023-04-29T02:30:47.439Z,3.80
2023-04-29T02:33:34.531Z,3.70
2023-04-29T02:36:16.397Z,3.80
2023-04-29T02:39:05.587Z,3.80
2023-04-29T02:41:46.422Z,3.70
2023-04-29T02:44:33.607Z,3.60
2023-04-29T02:47:13.369Z,3.50
2023-04-29T02:50:00.570Z,3.50
2023-04-29T02:52:40.417Z,3.50
2023-04-29T02:55:34.466Z,3.40
2023-04-29T02:58:23.502Z,3.40
2023-04-29T03:01:04.437Z,3.50
2023-04-29T03:03:51.817Z,3.50
2023-04-29T03:06:32.500Z,3.50
2023-04-29T03:09:19.610Z,3.40
2023-04-29T03:12:00.439Z,3.40
2023-04-29T03:14:47.546Z,3.40
2023-04-29T03:17:29.535Z,3.40
2023-04-29T03:20:16.573Z,3.40
2023-04-29T03:22:56.509Z,3.40
2023-04-29T03:25:44.563Z,3.50
2023-04-29T03:28:24.512Z,3.50
2023-04-29T03:31:18.446Z,3.60
2023-04-29T03:34:05.452Z,3.70
2023-04-29T03:36:48.572Z,3.70
2023-04-29T03:39:39.429Z,3.60
2023-04-29T03:42:21.543Z,3.70
2023-04-29T03:45:08.519Z,3.70
2023-04-29T03:47:55.538Z,3.80
2023-04-29T03:50:42.563Z,3.90
2023-04-29T03:53:22.489Z,4.00
2023-04-29T03:56:09.591Z,4.10
2023-04-29T03:58:49.455Z,4.10
2023-04-29T04:01:39.580Z,4.10
2023-04-29T04:04:20.663Z,4.10
2023-04-29T04:07:07.670Z,4.00
2023-04-29T04:10:08.591Z,3.90
2023-04-29T04:12:55.616Z,3.90
2023-04-29T04:15:36.564Z,4.00
2023-04-29T04:18:23.644Z,4.10
2023-04-29T04:21:04.612Z,4.20
2023-04-29T04:23:53.566Z,4.30
2023-04-29T04:26:35.471Z,4.40
2023-04-29T04:29:28.850Z,4.40
2023-04-29T04:32:27.578Z,4.40
2023-04-29T04:35:14.563Z,4.20
2023-04-29T04:37:54.584Z,4.20
2023-04-29T04:40:41.498Z,4.20
2023-04-29T04:43:41.679Z,4.20
2023-04-29T04:46:47.505Z,4.20
2023-04-29T04:49:49.880Z,4.30
2023-04-29T04:52:36.515Z,4.40
2023-04-29T04:55:27.655Z,4.40
2023-04-29T04:58:14.543Z,4.40
2023-04-29T05:00:55.743Z,4.50
2023-04-29T05:03:42.669Z,4.70
2023-04-29T05:06:22.890Z,4.90
2023-04-29T05:09:09.619Z,5.10
2023-04-29T05:11:51.285Z,5.30
2023-04-29T05:14:39.522Z,5.40
2023-04-29T05:17:27.664Z,5.50
2023-04-29T05:20:14.879Z,5.50
2023-04-29T05:22:54.522Z,5.40
2023-04-29T05:25:44.357Z,5.40
2023-04-29T05:28:27.587Z,5.40
2023-04-29T05:31:21.596Z,5.60
2023-04-29T05:34:14.671Z,5.70
2023-04-29T05:36:54.751Z,5.90
2023-04-29T05:39:43.579Z,5.90
2023-04-29T05:42:24.669Z,6.10
2023-04-29T05:45:11.633Z,6.20
2023-04-29T05:47:51.927Z,6.20
2023-04-29T05:50:38.571Z,6.20
2023-04-29T05:53:18.766Z,6.30
2023-04-29T05:56:06.638Z,6.40
2023-04-29T05:58:47.754Z,6.60
2023-04-29T06:01:34.587Z,6.80
2023-04-29T06:04:14.931Z,6.90
2023-04-29T06:10:07.687Z,7.10
2023-04-29T06:12:51.941Z,7.30
2023-04-29T06:15:38.703Z,7.30
2023-04-29T06:18:21.043Z,7.40
2023-04-29T06:21:07.685Z,7.50
2023-04-29T06:26:36.705Z,8.20
2023-04-29T06:29:17.042Z,8.50
2023-04-29T06:32:11.607Z,8.60
2023-04-29T06:34:59.702Z,8.50
2023-04-29T06:37:57.653Z,8.30
2023-04-29T06:40:43.844Z,8.30
2023-04-29T06:43:54.647Z,8.40
2023-04-29T06:46:59.713Z,8.60
2023-04-29T06:49:51.064Z,8.80
2023-04-29T06:52:38.704Z,8.90
2023-04-29T06:55:18.798Z,9.30
2023-04-29T06:58:05.630Z,9.80
2023-04-29T07:00:46.987Z,10.00
2023-04-29T07:03:35.834Z,10.10
2023-04-29T07:06:16.010Z,9.90
2023-04-29T07:09:02.696Z,10.40
2023-04-29T07:11:43.829Z,10.80
2023-04-29T07:14:33.659Z,11.10
2023-04-29T07:17:14.378Z,11.10
2023-04-29T07:20:01.662Z,11.20
2023-04-29T07:22:41.775Z,11.60
2023-04-29T07:25:28.778Z,12.10
2023-04-29T07:28:09.855Z,12.40
2023-04-29T07:30:56.708Z,13.00
2023-04-29T07:33:50.766Z,13.20
2023-04-29T07:36:37.955Z,13.20
2023-04-29T07:39:18.673Z,13.80
2023-04-29T07:42:08.797Z,14.30
2023-04-29T07:44:48.773Z,15.10
2023-04-29T07:47:36.956Z,15.60
2023-04-29T07:50:16.721Z,15.60
2023-04-29T07:53:03.830Z,15.80
2023-04-29T07:55:44.847Z,15.90
2023-04-29T07:58:34.961Z,16.00
2023-04-29T08:01:18.728Z,16.50
2023-04-29T08:04:06.256Z,16.60
2023-04-29T08:07:01.823Z,16.30
2023-04-29T08:09:49.828Z,15.80
2023-04-29T08:12:29.730Z,15.30
2023-04-29T08:15:18.560Z,14.50
2023-04-29T08:17:59.818Z,15.10
2023-04-29T08:20:47.525Z,15.40
2023-04-29T08:23:28.725Z,15.70
2023-04-29T08:26:16.875Z,15.90
2023-04-29T08:28:56.772Z,16.00
2023-04-29T08:31:50.835Z,16.20
2023-04-29T08:34:31.960Z,16.40
2023-04-29T08:37:18.748Z,16.30
2023-04-29T08:40:06.076Z,16.40
2023-04-29T08:42:47.431Z,16.50
2023-04-29T08:45:35.939Z,16.40
2023-04-29T08:48:16.924Z,16.30
2023-04-29T08:51:03.974Z,17.20
2023-04-29T08:53:43.777Z,18.20
2023-04-29T08:56:31.098Z,18.90
2023-04-29T08:59:11.958Z,19.00
2023-04-29T09:01:54.140Z,19.50
2023-04-29T09:04:59.838Z,19.90
2023-04-29T09:07:41.171Z,19.30
2023-04-29T09:10:27.807Z,19.20
2023-04-29T09:13:08.049Z,19.70
2023-04-29T09:15:56.057Z,20.40
2023-04-29T09:18:52.014Z,20.40
2023-04-29T09:21:33.860Z,20.10
2023-04-29T09:24:31.111Z,19.80
2023-04-29T09:27:10.815Z,19.60
2023-04-29T09:30:06.918Z,19.20
2023-04-29T09:33:16.836Z,18.10
2023-04-29T09:36:03.838Z,18.60
2023-04-29T09:38:59.930Z,19.20
2023-04-29T09:41:47.849Z,19.30
2023-04-29T09:44:31.282Z,19.70
2023-04-29T09:47:19.872Z,20.50
2023-04-29T09:49:59.925Z,21.60
2023-04-29T09:52:49.858Z,21.40
2023-04-29T09:55:29.950Z,21.00
2023-04-29T09:58:33.895Z,20.10
2023-04-29T10:01:14.526Z,20.00
2023-04-29T10:04:01.885Z,20.20
2023-04-29T10:06:43.560Z,20.40
2023-04-29T10:09:29.867Z,20.20
2023-04-29T10:12:12.189Z,20.30
2023-04-29T10:15:24.979Z,20.00
2023-04-29T10:18:07.715Z,18.50
2023-04-29T10:20:56.005Z,16.70
2023-04-29T10:23:43.961Z,16.70
2023-04-29T10:26:34.041Z,17.50
2023-04-29T10:29:21.913Z,17.90
2023-04-29T10:32:17.957Z,18.10
2023-04-29T10:35:06.009Z,17.40
2023-04-29T10:37:47.079Z,17.10
2023-04-29T10:40:48.968Z,16.90
2023-04-29T10:43:33.075Z,16.60
2023-04-29T10:46:23.044Z,16.00
2023-04-29T10:49:10.100Z,16.60
2023-04-29T10:51:56.942Z,17.30
2023-04-29T10:54:37.025Z,17.80
2023-04-29T10:57:29.950Z,18.60
2023-04-29T11:00:17.129Z,19.80
2023-04-29T11:02:58.412Z,21.90
2023-04-29T11:05:50.917Z,22.90
2023-04-29T11:08:39.977Z,23.10
2023-04-29T11:11:22.032Z,21.40
2023-04-29T11:14:09.048Z,19.60
2023-04-29T11:16:58.220Z,19.00
2023-04-29T11:19:49.727Z,18.60
2023-04-29T11:22:31.053Z,18.30
2023-04-29T11:25:18.959Z,17.10
2023-04-29T11:28:01.989Z,16.10
2023-04-29T11:30:50.182Z,15.80
2023-04-29T11:33:51.955Z,15.30
2023-04-29T11:36:39.163Z,15.50
2023-04-29T11:39:18.983Z,15.80
2023-04-29T11:42:15.203Z,15.90
2023-04-29T11:44:58.999Z,15.80
2023-04-29T11:47:56.207Z,15.70
2023-04-29T11:50:36.574Z,15.80
2023-04-29T11:53:22.986Z,15.60
2023-04-29T11:56:10.393Z,15.10
2023-04-29T11:58:51.020Z,15.20
2023-04-29T12:01:38.240Z,15.80
2023-04-29T12:04:18.329Z,16.40
2023-04-29T12:07:05.203Z,16.80
2023-04-29T12:09:52.058Z,16.60
2023-04-29T12:12:40.883Z,16.00
2023-04-29T12:15:21.029Z,15.50
2023-04-29T12:18:02.093Z,15.40
2023-04-29T12:20:49.083Z,15.80
2023-04-29T12:23:36.173Z,16.20
2023-04-29T12:26:17.023Z,17.40
2023-04-29T12:29:04.124Z,18.40
2023-04-29T12:31:44.053Z,18.60
2023-04-29T12:34:38.235Z,18.60
2023-04-29T12:37:20.036Z,17.10
2023-04-29T12:40:07.135Z,16.20
2023-04-29T12:42:48.147Z,16.20
2023-04-29T12:45:35.337Z,16.20
2023-04-29T12:48:25.464Z,16.20
2023-04-29T12:51:10.284Z,15.60
2023-04-29T12:53:57.147Z,15.50
2023-04-29T12:56:48.534Z,15.50
2023-04-29T12:59:29.057Z,15.30
2023-04-29T13:02:16.475Z,15.30
2023-04-29T13:04:56.479Z,15.10
2023-04-29T13:07:37.118Z,14.80
2023-04-29T13:10:24.078Z,14.60
2023-04-29T13:13:04.397Z,14.80
2023-04-29T13:15:51.180Z,14.90
2023-04-29T13:18:39.133Z,14.90
2023-04-29T13:21:19.272Z,14.80
2023-04-29T13:24:06.197Z,14.70
2023-04-29T13:26:47.337Z,14.60
2023-04-29T13:29:34.162Z,14.70
2023-04-29T13:32:14.274Z,14.60
2023-04-29T13:35:01.131Z,14.70
2023-04-29T13:37:41.231Z,14.90
2023-04-29T13:40:28.532Z,15.00
2023-04-29T13:43:09.710Z,15.10
2023-04-29T13:45:58.179Z,15.10
2023-04-29T13:54:53.618Z,15.40
2023-04-29T14:00:06.197Z,15.10
2023-04-29T14:05:46.322Z,15.10
2023-04-29T14:08:26.296Z,15.00
2023-04-29T14:11:13.262Z,15.20
2023-04-29T14:13:53.307Z,15.20
2023-04-29T14:16:40.150Z,15.10
2023-04-29T14:19:20.286Z,15.20
2023-04-29T14:22:07.163Z,15.20
2023-04-29T14:24:47.340Z,15.10
2023-04-29T14:27:34.234Z,15.00
2023-04-29T14:30:14.269Z,15.00
2023-04-29T14:33:08.186Z,15.00
2023-04-29T14:35:55.482Z,15.00
2023-04-29T14:38:35.299Z,14.90
2023-04-29T14:41:22.302Z,14.90
2023-04-29T14:44:02.251Z,15.00
2023-04-29T14:46:49.444Z,15.00
2023-04-29T14:49:31.536Z,14.80
2023-04-29T14:52:18.370Z,14.70
2023-04-29T14:54:58.211Z,14.80
2023-04-29T14:57:38.491Z,14.80
2023-04-29T15:00:25.368Z,14.70
2023-04-29T15:03:20.208Z,14.70
2023-04-29T15:06:03.230Z,14.70
2023-04-29T15:08:57.212Z,14.80
2023-04-29T15:11:44.387Z,14.80
2023-04-29T15:14:24.304Z,14.90
2023-04-29T15:17:11.354Z,14.80
2023-04-29T15:19:51.227Z,14.80
2023-04-29T15:22:38.309Z,14.80
2023-04-29T15:25:18.243Z,14.80
2023-04-29T15:28:05.915Z,14.80
2023-04-29T15:30:45.250Z,14.80
2023-04-29T15:33:33.197Z,14.80
2023-04-29T15:36:14.269Z,14.90
2023-04-29T15:39:01.386Z,14.90
2023-04-29T15:41:41.256Z,14.90
2023-04-29T15:44:28.410Z,14.80
2023-04-29T15:47:08.340Z,14.90
2023-04-29T15:49:56.678Z,14.90
2023-04-29T15:52:36.286Z,14.90
2023-04-29T15:55:23.533Z,14.80
2023-04-29T15:58:03.290Z,14.80
2023-04-29T16:00:50.612Z,14.90
2023-04-29T16:03:30.379Z,14.90
2023-04-29T16:06:17.430Z,14.90
2023-04-29T16:08:57.383Z,14.80
2023-04-29T16:11:51.395Z,14.70
2023-04-29T16:14:38.534Z,14.70
2023-04-29T16:17:19.620Z,14.60
2023-04-29T16:20:06.429Z,14.70
2023-04-29T16:22:47.314Z,14.60
2023-04-29T16:25:34.465Z,14.60
2023-04-29T16:28:14.320Z,14.60
2023-04-29T16:31:01.496Z,14.60
2023-04-29T16:33:48.405Z,14.50
2023-04-29T16:36:28.507Z,14.50
2023-04-29T16:39:15.335Z,14.40
2023-04-29T16:41:55.526Z,14.40
2023-04-29T16:44:42.354Z,14.40
2023-04-29T16:47:23.676Z,14.40
2023-04-29T16:50:10.341Z,14.40
2023-04-29T16:52:50.445Z,14.30
2023-04-29T16:55:37.422Z,14.30
2023-04-29T16:58:17.620Z,14.30
2023-04-29T17:01:04.422Z,14.30
2023-04-29T17:03:44.566Z,14.20
2023-04-29T17:06:32.448Z,14.20
2023-04-29T17:09:12.569Z,14.20
2023-04-29T17:11:59.506Z,14.20
2023-04-29T17:14:40.535Z,14.10
2023-04-29T17:17:27.573Z,14.20
2023-04-29T17:20:14.406Z,14.10
2023-04-29T17:23:01.878Z,14.10
2023-04-29T17:25:43.519Z,14.10
2023-04-29T17:28:30.919Z,14.10
2023-04-29T17:31:10.538Z,14.10
2023-04-29T17:34:12.536Z,14.10
2023-04-29T17:36:59.423Z,14.00
2023-04-29T17:39:40.580Z,14.00
2023-04-29T17:42:29.406Z,14.00
2023-04-29T17:45:10.528Z,13.90
2023-04-29T17:47:58.044Z,13.90
2023-04-29T17:50:37.542Z,13.80
2023-04-29T17:53:24.398Z,13.80
2023-04-29T17:56:04.593Z,13.70
2023-04-29T17:58:51.424Z,13.60
2023-04-29T18:01:32.831Z,13.60
2023-04-29T18:04:19.422Z,13.60
2023-04-29T18:06:59.566Z,13.60
2023-04-29T18:09:46.428Z,13.50
2023-04-29T18:12:26.650Z,13.50
2023-04-29T18:15:14.462Z,13.60
2023-04-29T18:18:01.490Z,13.50
2023-04-29T18:20:52.072Z,13.50
2023-04-29T18:23:31.432Z,13.50
2023-04-29T18:26:18.722Z,13.50
2023-04-29T18:28:58.512Z,13.50
2023-04-29T18:31:45.729Z,13.50
2023-04-29T18:34:32.552Z,13.50
2023-04-29T18:37:12.569Z,13.50
2023-04-29T18:39:59.453Z,13.50
2023-04-29T18:42:39.681Z,13.50
2023-04-29T18:45:26.490Z,13.50
2023-04-29T18:48:07.180Z,13.60
2023-04-29T18:50:54.514Z,13.60
2023-04-29T18:53:34.628Z,13.60
2023-04-29T18:56:21.636Z,13.60
2023-04-29T18:59:01.767Z,13.50
2023-04-29T19:01:49.517Z,13.50
2023-04-29T19:04:36.651Z,13.50
2023-04-29T19:07:24.023Z,13.60
2023-04-29T19:10:03.481Z,13.50
2023-04-29T19:12:50.679Z,13.50
2023-04-29T19:15:34.517Z,13.50
2023-04-29T19:18:23.225Z,13.50
2023-04-29T19:21:03.531Z,13.50
2023-04-29T19:23:50.670Z,13.50
2023-04-29T19:26:32.864Z,13.50
2023-04-29T19:29:21.771Z,13.50
2023-04-29T19:32:01.550Z,13.40
2023-04-29T19:34:49.105Z,13.40
2023-04-29T19:37:28.530Z,13.40
2023-04-29T19:40:16.073Z,13.40
2023-04-29T19:42:55.503Z,13.40
2023-04-29T19:45:42.713Z,13.40
2023-04-29T19:48:23.560Z,13.40
2023-04-29T19:51:12.677Z,13.40
2023-04-29T19:53:52.640Z,13.40
2023-04-29T19:56:39.637Z,13.40
2023-04-29T19:59:19.634Z,13.40
2023-04-29T20:02:06.842Z,13.40
2023-04-29T20:04:46.558Z,13.30
2023-04-29T20:07:40.620Z,13.30
2023-04-29T20:10:29.943Z,13.40
2023-04-29T20:13:12.585Z,13.30
2023-04-29T20:16:01.786Z,13.40
2023-04-29T20:18:42.634Z,13.30
2023-04-29T20:21:30.045Z,13.40
2023-04-29T20:24:09.606Z,13.40
2023-04-29T20:26:56.687Z,13.30
2023-04-29T20:29:36.658Z,13.30
2023-04-29T20:32:23.740Z,13.30
2023-04-29T20:35:10.630Z,13.30
2023-04-29T20:37:50.736Z,13.30
2023-04-29T20:40:37.592Z,13.30
2023-04-29T20:43:17.750Z,13.30
2023-04-29T20:46:05.636Z,13.30
2023-04-29T20:48:46.419Z,13.30
2023-04-29T20:51:33.690Z,13.30
2023-04-29T20:54:13.979Z,13.30
2023-04-29T20:57:00.708Z,13.30
2023-04-29T20:59:40.861Z,13.30
2023-04-29T21:02:27.666Z,13.40
2023-04-29T21:05:16.630Z,13.30
2023-04-29T21:08:03.727Z,13.30
2023-04-29T21:10:44.707Z,13.30
2023-04-29T21:13:31.735Z,13.30
2023-04-29T21:16:11.706Z,13.30
2023-04-29T21:18:58.784Z,13.30
2023-04-29T21:21:38.795Z,13.30
2023-04-29T21:24:27.029Z,13.30
2023-04-29T21:27:06.657Z,13.30
2023-04-29T21:29:54.027Z,13.30
2023-04-29T21:32:33.851Z,13.20
2023-04-29T21:35:27.758Z,13.20
2023-04-29T21:38:14.729Z,13.20
2023-04-29T21:40:54.785Z,13.20
2023-04-29T21:43:41.653Z,13.10
2023-04-29T21:46:22.914Z,13.10
2023-04-29T21:49:09.688Z,13.10
2023-04-29T21:51:51.047Z,13.00
2023-04-29T21:54:37.693Z,13.00
2023-04-29T21:57:18.383Z,13.00
2023-04-29T22:00:05.653Z,12.90
2023-04-29T22:02:45.895Z,12.90
2023-04-29T22:05:32.776Z,12.90
2023-04-29T22:08:12.846Z,12.90
2023-04-29T22:10:59.760Z,12.90
2023-04-29T22:13:39.916Z,12.80
2023-04-29T22:16:26.768Z,12.70
2023-04-29T22:19:13.762Z,12.60
2023-04-29T22:22:01.664Z,12.50
2023-04-29T22:24:41.684Z,12.50
2023-04-29T22:27:28.876Z,12.50
2023-04-29T22:30:08.752Z,12.60
2023-04-29T22:32:56.968Z,12.60
2023-04-29T22:35:43.712Z,12.60
2023-04-29T22:38:23.805Z,12.60
2023-04-29T22:41:10.738Z,12.60
2023-04-29T22:43:57.209Z,12.60
2023-04-29T22:46:44.789Z,12.60
2023-04-29T22:49:27.542Z,12.60
2023-04-29T22:52:14.808Z,12.50
2023-04-29T22:54:54.940Z,12.50
2023-04-29T22:57:41.735Z,12.40
2023-04-29T23:00:22.058Z,12.40
2023-04-29T23:03:08.975Z,12.40
2023-04-29T23:05:48.934Z,12.30
2023-04-29T23:08:35.821Z,12.30
2023-04-29T23:11:16.065Z,12.30
2023-04-29T23:14:02.784Z,12.30
2023-04-29T23:16:42.911Z,12.20
2023-04-29T23:19:29.850Z,12.20
2023-04-29T23:22:16.825Z,12.10
2023-04-29T23:25:04.131Z,11.90
2023-04-29T23:27:44.780Z,11.80
2023-04-29T23:30:31.897Z,11.80
2023-04-29T23:33:11.779Z,11.80
2023-04-29T23:35:58.980Z,11.70
2023-04-29T23:38:38.885Z,11.70
2023-04-29T23:41:25.879Z,11.70
2023-04-29T23:44:08.781Z,11.60
2023-04-29T23:46:55.996Z,11.60
2023-04-29T23:49:36.780Z,11.60
2023-04-29T23:52:24.013Z,11.50
2023-04-29T23:55:03.799Z,11.40
2023-04-29T23:57:44.075Z,11.40
